sensor_id;sensor_type;location;lat;lon;timestamp;temperature;humidity
30288;DHT22;17103;48.316;11.558;2023-10-09T00:01:01;20.60;45.30
30288;DHT22;17103;48.316;11.558;2023-10-09T00:03:40;20.50;44.80
30288;DHT22;17103;48.316;11.558;2023-10-09T00:06:07;20.70;45.10
30288;DHT22;17103;48.316;11.558;2023-10-09T00:08:33;20.40;45.20
30288;DHT22;17103;48.316;11.558;2023-10-09T00:11:01;20.30;45.40
30288;DHT22;17103;48.316;11.558;2023-10-09T00:13:41;20.30;45.60
30288;DHT22;17103;48.316;11.558;2023-10-09T00:16:25;20.20;45.80
30288;DHT22;17103;48.316;11.558;2023-10-09T00:19:14;20.10;45.70
30288;DHT22;17103;48.316;11.558;2023-10-09T00:21:49;20.00;45.90
30288;DHT22;17103;48.316;11.558;2023-10-09T00:24:15;19.90;46.50
30288;DHT22;17103;48.316;11.558;2023-10-09T00:26:51;19.80;46.70
30288;DHT22;17103;48.316;11.558;2023-10-09T00:29:17;19.70;46.20
30288;DHT22;17103;48.316;11.558;2023-10-09T00:31:53;19.60;46.00
30288;DHT22;17103;48.316;11.558;2023-10-09T00:34:29;19.50;46.10
30288;DHT22;17103;48.316;11.558;2023-10-09T00:36:55;19.40;46.30
30288;DHT22;17103;48.316;11.558;2023-10-09T00:39:23;19.30;46.40
30288;DHT22;17103;48.316;11.558;2023-10-09T00:42:04;19.30;46.50
30288;DHT22;17103;48.316;11.558;2023-10-09T00:44:32;19.20;47.10
30288;DHT22;17103;48.316;11.558;2023-10-09T00:47:10;19.20;47.00
30288;DHT22;17103;48.316;11.558;2023-10-09T00:49:58;19.20;47.20
30288;DHT22;17103;48.316;11.558;2023-10-09T00:52:28;19.10;47.30
30288;DHT22;17103;48.316;11.558;2023-10-09T00:54:59;19.10;47.40
30288;DHT22;17103;48.316;11.558;2023-10-09T00:57:29;19.00;47.30
30288;DHT22;17103;48.316;11.558;2023-10-09T00:59:59;19.00;47.30
30288;DHT22;17103;48.316;11.558;2023-10-09T01:02:29;18.90;47.50
30288;DHT22;17103;48.316;11.558;2023-10-09T01:05:08;18.90;47.70
30288;DHT22;17103;48.316;11.558;2023-10-09T01:07:45;18.80;47.50
30288;DHT22;17103;48.316;11.558;2023-10-09T01:10:11;18.80;47.50
30288;DHT22;17103;48.316;11.558;2023-10-09T01:12:36;18.70;48.00
30288;DHT22;17103;48.316;11.558;2023-10-09T01:15:09;18.80;47.70
30288;DHT22;17103;48.316;11.558;2023-10-09T01:17:43;18.80;47.70
30288;DHT22;17103;48.316;11.558;2023-10-09T01:20:11;18.70;47.60
30288;DHT22;17103;48.316;11.558;2023-10-09T01:22:48;18.70;47.70
30288;DHT22;17103;48.316;11.558;2023-10-09T01:25:16;18.70;47.60
30288;DHT22;17103;48.316;11.558;2023-10-09T01:27:42;18.70;47.80
30288;DHT22;17103;48.316;11.558;2023-10-09T01:30:09;18.70;48.00
30288;DHT22;17103;48.316;11.558;2023-10-09T01:32:39;18.70;48.00
30288;DHT22;17103;48.316;11.558;2023-10-09T01:35:06;18.60;47.90
30288;DHT22;17103;48.316;11.558;2023-10-09T01:37:41;18.60;47.60
30288;DHT22;17103;48.316;11.558;2023-10-09T01:40:08;18.60;48.00
30288;DHT22;17103;48.316;11.558;2023-10-09T01:43:01;18.50;47.90
30288;DHT22;17103;48.316;11.558;2023-10-09T01:45:29;18.50;47.90
30288;DHT22;17103;48.316;11.558;2023-10-09T01:47:55;18.50;48.00
30288;DHT22;17103;48.316;11.558;2023-10-09T01:50:21;18.50;47.90
30288;DHT22;17103;48.316;11.558;2023-10-09T01:52:50;18.40;47.90
30288;DHT22;17103;48.316;11.558;2023-10-09T01:55:17;18.40;48.10
30288;DHT22;17103;48.316;11.558;2023-10-09T01:58:14;18.40;48.00
30288;DHT22;17103;48.316;11.558;2023-10-09T02:00:46;18.40;48.00
30288;DHT22;17103;48.316;11.558;2023-10-09T02:03:20;18.40;48.00
30288;DHT22;17103;48.316;11.558;2023-10-09T02:05:50;18.40;48.20
30288;DHT22;17103;48.316;11.558;2023-10-09T02:08:17;18.40;48.10
30288;DHT22;17103;48.316;11.558;2023-10-09T02:10:48;18.40;48.60
30288;DHT22;17103;48.316;11.558;2023-10-09T02:13:14;18.40;48.00
30288;DHT22;17103;48.316;11.558;2023-10-09T02:15:48;18.40;48.00
30288;DHT22;17103;48.316;11.558;2023-10-09T02:18:19;18.30;48.10
30288;DHT22;17103;48.316;11.558;2023-10-09T02:23:32;18.30;48.20
30288;DHT22;17103;48.316;11.558;2023-10-09T02:26:10;18.40;48.20
30288;DHT22;17103;48.316;11.558;2023-10-09T02:28:43;18.30;48.10
30288;DHT22;17103;48.316;11.558;2023-10-09T02:31:10;18.30;48.10
30288;DHT22;17103;48.316;11.558;2023-10-09T02:33:36;18.30;48.20
30288;DHT22;17103;48.316;11.558;2023-10-09T02:36:07;18.30;48.20
30288;DHT22;17103;48.316;11.558;2023-10-09T02:38:34;18.20;48.00
30288;DHT22;17103;48.316;11.558;2023-10-09T02:41:02;18.50;53.10
30288;DHT22;17103;48.316;11.558;2023-10-09T02:43:28;18.20;48.60
30288;DHT22;17103;48.316;11.558;2023-10-09T02:46:00;18.20;48.00
30288;DHT22;17103;48.316;11.558;2023-10-09T02:48:38;18.30;48.10
30288;DHT22;17103;48.316;11.558;2023-10-09T02:51:08;18.30;48.00
30288;DHT22;17103;48.316;11.558;2023-10-09T02:53:40;18.30;48.00
30288;DHT22;17103;48.316;11.558;2023-10-09T02:56:06;18.20;47.80
30288;DHT22;17103;48.316;11.558;2023-10-09T02:58:39;18.30;47.90
30288;DHT22;17103;48.316;11.558;2023-10-09T03:01:10;18.30;47.90
30288;DHT22;17103;48.316;11.558;2023-10-09T03:03:36;18.30;48.00
30288;DHT22;17103;48.316;11.558;2023-10-09T03:06:04;18.30;47.80
30288;DHT22;17103;48.316;11.558;2023-10-09T03:08:36;18.30;47.80
30288;DHT22;17103;48.316;11.558;2023-10-09T03:11:02;18.30;47.80
30288;DHT22;17103;48.316;11.558;2023-10-09T03:13:28;18.30;47.80
30288;DHT22;17103;48.316;11.558;2023-10-09T03:15:54;18.40;47.90
30288;DHT22;17103;48.316;11.558;2023-10-09T03:18:20;18.30;47.80
30288;DHT22;17103;48.316;11.558;2023-10-09T03:20:46;18.30;47.80
30288;DHT22;17103;48.316;11.558;2023-10-09T03:23:11;18.30;47.80
30288;DHT22;17103;48.316;11.558;2023-10-09T03:25:40;18.30;47.80
30288;DHT22;17103;48.316;11.558;2023-10-09T03:28:08;18.30;47.70
30288;DHT22;17103;48.316;11.558;2023-10-09T03:30:33;18.30;47.70
30288;DHT22;17103;48.316;11.558;2023-10-09T03:32:59;18.30;47.60
30288;DHT22;17103;48.316;11.558;2023-10-09T03:35:34;18.30;47.70
30288;DHT22;17103;48.316;11.558;2023-10-09T03:38:01;18.30;47.60
30288;DHT22;17103;48.316;11.558;2023-10-09T03:40:44;18.30;47.60
30288;DHT22;17103;48.316;11.558;2023-10-09T03:43:13;18.30;47.60
30288;DHT22;17103;48.316;11.558;2023-10-09T03:45:40;18.30;47.60
30288;DHT22;17103;48.316;11.558;2023-10-09T03:48:18;18.60;47.80
30288;DHT22;17103;48.316;11.558;2023-10-09T03:50:58;18.30;47.50
30288;DHT22;17103;48.316;11.558;2023-10-09T03:53:38;18.30;47.50
30288;DHT22;17103;48.316;11.558;2023-10-09T03:56:08;18.20;47.40
30288;DHT22;17103;48.316;11.558;2023-10-09T03:58:45;18.30;47.60
30288;DHT22;17103;48.316;11.558;2023-10-09T04:01:13;18.30;47.60
30288;DHT22;17103;48.316;11.558;2023-10-09T04:03:52;18.30;47.50
30288;DHT22;17103;48.316;11.558;2023-10-09T04:06:21;18.30;47.50
30288;DHT22;17103;48.316;11.558;2023-10-09T04:08:47;18.30;47.50
30288;DHT22;17103;48.316;11.558;2023-10-09T04:11:15;18.30;47.50
30288;DHT22;17103;48.316;11.558;2023-10-09T04:13:49;18.30;47.50
30288;DHT22;17103;48.316;11.558;2023-10-09T04:16:21;18.30;47.40
30288;DHT22;17103;48.316;11.558;2023-10-09T04:19:00;18.40;47.50
30288;DHT22;17103;48.316;11.558;2023-10-09T04:21:32;18.30;47.40
30288;DHT22;17103;48.316;11.558;2023-10-09T04:26:45;18.40;47.40
30288;DHT22;17103;48.316;11.558;2023-10-09T04:29:15;18.40;47.50
30288;DHT22;17103;48.316;11.558;2023-10-09T04:31:49;18.40;47.40
30288;DHT22;17103;48.316;11.558;2023-10-09T04:34:20;18.40;47.40
30288;DHT22;17103;48.316;11.558;2023-10-09T04:36:56;18.80;47.90
30288;DHT22;17103;48.316;11.558;2023-10-09T04:39:26;18.30;47.40
30288;DHT22;17103;48.316;11.558;2023-10-09T04:41:54;18.40;47.50
30288;DHT22;17103;48.316;11.558;2023-10-09T04:44:44;18.40;47.50
30288;DHT22;17103;48.316;11.558;2023-10-09T04:47:32;18.30;47.50
30288;DHT22;17103;48.316;11.558;2023-10-09T04:50:08;18.30;47.50
30288;DHT22;17103;48.316;11.558;2023-10-09T04:52:40;18.30;47.50
30288;DHT22;17103;48.316;11.558;2023-10-09T04:55:07;18.30;47.50
30288;DHT22;17103;48.316;11.558;2023-10-09T04:57:42;18.30;47.60
30288;DHT22;17103;48.316;11.558;2023-10-09T05:00:10;18.20;47.60
30288;DHT22;17103;48.316;11.558;2023-10-09T05:02:56;18.30;47.60
30288;DHT22;17103;48.316;11.558;2023-10-09T05:05:32;18.20;47.60
30288;DHT22;17103;48.316;11.558;2023-10-09T05:08:18;18.30;47.60
30288;DHT22;17103;48.316;11.558;2023-10-09T05:11:02;18.20;47.60
30288;DHT22;17103;48.316;11.558;2023-10-09T05:13:36;18.30;47.70
30288;DHT22;17103;48.316;11.558;2023-10-09T05:18:55;18.50;47.70
30288;DHT22;17103;48.316;11.558;2023-10-09T05:21:30;18.40;47.60
30288;DHT22;17103;48.316;11.558;2023-10-09T05:23:57;18.40;47.70
30288;DHT22;17103;48.316;11.558;2023-10-09T05:26:45;18.30;47.60
30288;DHT22;17103;48.316;11.558;2023-10-09T05:29:18;18.30;47.60
30288;DHT22;17103;48.316;11.558;2023-10-09T05:32:04;18.30;47.60
30288;DHT22;17103;48.316;11.558;2023-10-09T05:34:45;18.30;47.60
30288;DHT22;17103;48.316;11.558;2023-10-09T05:39:52;18.20;47.50
30288;DHT22;17103;48.316;11.558;2023-10-09T05:42:35;18.20;47.50
30288;DHT22;17103;48.316;11.558;2023-10-09T05:45:16;18.20;47.60
30288;DHT22;17103;48.316;11.558;2023-10-09T05:47:53;18.50;47.90
30288;DHT22;17103;48.316;11.558;2023-10-09T05:50:28;18.20;47.60
30288;DHT22;17103;48.316;11.558;2023-10-09T05:52:55;18.10;47.50
30288;DHT22;17103;48.316;11.558;2023-10-09T05:55:25;18.10;47.50
30288;DHT22;17103;48.316;11.558;2023-10-09T05:57:54;18.10;47.60
30288;DHT22;17103;48.316;11.558;2023-10-09T06:00:39;18.10;47.30
30288;DHT22;17103;48.316;11.558;2023-10-09T06:03:23;18.60;47.90
30288;DHT22;17103;48.316;11.558;2023-10-09T06:05:53;18.10;48.30
30288;DHT22;17103;48.316;11.558;2023-10-09T06:08:19;18.10;47.80
30288;DHT22;17103;48.316;11.558;2023-10-09T06:11:26;18.10;47.90
30288;DHT22;17103;48.316;11.558;2023-10-09T06:13:59;18.10;48.00
30288;DHT22;17103;48.316;11.558;2023-10-09T06:16:32;18.00;47.90
30288;DHT22;17103;48.316;11.558;2023-10-09T06:19:16;18.10;47.90
30288;DHT22;17103;48.316;11.558;2023-10-09T06:21:44;18.10;47.80
30288;DHT22;17103;48.316;11.558;2023-10-09T06:24:30;18.10;47.90
30288;DHT22;17103;48.316;11.558;2023-10-09T06:27:08;18.10;48.10
30288;DHT22;17103;48.316;11.558;2023-10-09T06:29:42;18.30;48.30
30288;DHT22;17103;48.316;11.558;2023-10-09T06:32:11;18.10;48.40
30288;DHT22;17103;48.316;11.558;2023-10-09T06:35:01;18.10;48.40
30288;DHT22;17103;48.316;11.558;2023-10-09T06:37:48;18.10;48.70
30288;DHT22;17103;48.316;11.558;2023-10-09T06:40:38;18.20;48.50
30288;DHT22;17103;48.316;11.558;2023-10-09T06:43:23;18.20;48.40
30288;DHT22;17103;48.316;11.558;2023-10-09T06:45:49;18.30;48.30
30288;DHT22;17103;48.316;11.558;2023-10-09T06:48:34;18.30;48.40
30288;DHT22;17103;48.316;11.558;2023-10-09T06:51:11;18.30;48.40
30288;DHT22;17103;48.316;11.558;2023-10-09T06:53:53;18.50;48.60
30288;DHT22;17103;48.316;11.558;2023-10-09T06:56:29;18.40;48.40
30288;DHT22;17103;48.316;11.558;2023-10-09T06:58:55;18.50;48.50
30288;DHT22;17103;48.316;11.558;2023-10-09T07:01:25;18.50;48.40
30288;DHT22;17103;48.316;11.558;2023-10-09T07:04:08;18.60;48.40
30288;DHT22;17103;48.316;11.558;2023-10-09T07:06:52;18.60;48.40
30288;DHT22;17103;48.316;11.558;2023-10-09T07:09:18;18.70;48.60
30288;DHT22;17103;48.316;11.558;2023-10-09T07:11:49;18.90;48.90
30288;DHT22;17103;48.316;11.558;2023-10-09T07:14:20;18.70;48.80
30288;DHT22;17103;48.316;11.558;2023-10-09T07:17:18;18.80;48.60
30288;DHT22;17103;48.316;11.558;2023-10-09T07:19:59;18.90;48.50
30288;DHT22;17103;48.316;11.558;2023-10-09T07:22:37;19.10;48.60
30288;DHT22;17103;48.316;11.558;2023-10-09T07:25:21;19.00;48.50
30288;DHT22;17103;48.316;11.558;2023-10-09T07:28:05;19.10;48.50
30288;DHT22;17103;48.316;11.558;2023-10-09T07:30:46;19.20;48.50
30288;DHT22;17103;48.316;11.558;2023-10-09T07:33:12;19.30;48.60
30288;DHT22;17103;48.316;11.558;2023-10-09T07:35:42;19.70;48.90
30288;DHT22;17103;48.316;11.558;2023-10-09T07:38:08;19.50;48.40
30288;DHT22;17103;48.316;11.558;2023-10-09T07:40:38;19.60;48.80
30288;DHT22;17103;48.316;11.558;2023-10-09T07:43:27;19.90;48.50
30288;DHT22;17103;48.316;11.558;2023-10-09T07:45:56;19.70;48.10
30288;DHT22;17103;48.316;11.558;2023-10-09T07:48:25;19.80;48.20
30288;DHT22;17103;48.316;11.558;2023-10-09T07:50:51;19.90;48.10
30288;DHT22;17103;48.316;11.558;2023-10-09T07:53:23;20.00;47.80
30288;DHT22;17103;48.316;11.558;2023-10-09T07:55:55;20.00;47.80
30288;DHT22;17103;48.316;11.558;2023-10-09T07:58:25;20.10;47.70
30288;DHT22;17103;48.316;11.558;2023-10-09T08:00:54;20.40;47.90
30288;DHT22;17103;48.316;11.558;2023-10-09T08:03:33;20.30;48.20
30288;DHT22;17103;48.316;11.558;2023-10-09T08:06:01;20.30;47.50
30288;DHT22;17103;48.316;11.558;2023-10-09T08:08:53;20.40;47.20
30288;DHT22;17103;48.316;11.558;2023-10-09T08:11:45;20.60;47.50
30288;DHT22;17103;48.316;11.558;2023-10-09T08:14:14;20.70;47.00
30288;DHT22;17103;48.316;11.558;2023-10-09T08:16:58;21.00;47.20
30288;DHT22;17103;48.316;11.558;2023-10-09T08:19:53;20.90;46.50
30288;DHT22;17103;48.316;11.558;2023-10-09T08:22:29;21.10;46.10
30288;DHT22;17103;48.316;11.558;2023-10-09T08:25:10;21.00;46.10
30288;DHT22;17103;48.316;11.558;2023-10-09T08:28:11;21.00;45.90
30288;DHT22;17103;48.316;11.558;2023-10-09T08:30:40;21.10;45.40
30288;DHT22;17103;48.316;11.558;2023-10-09T08:33:17;21.10;45.70
30288;DHT22;17103;48.316;11.558;2023-10-09T08:35:56;21.30;45.50
30288;DHT22;17103;48.316;11.558;2023-10-09T08:38:31;21.30;45.10
30288;DHT22;17103;48.316;11.558;2023-10-09T08:41:10;21.30;44.40
30288;DHT22;17103;48.316;11.558;2023-10-09T08:43:50;21.40;45.10
30288;DHT22;17103;48.316;11.558;2023-10-09T08:46:25;21.50;44.90
30288;DHT22;17103;48.316;11.558;2023-10-09T08:48:58;21.50;44.40
30288;DHT22;17103;48.316;11.558;2023-10-09T08:51:28;21.50;44.10
30288;DHT22;17103;48.316;11.558;2023-10-09T08:53:59;21.60;44.40
30288;DHT22;17103;48.316;11.558;2023-10-09T08:56:26;21.60;44.60
30288;DHT22;17103;48.316;11.558;2023-10-09T08:58:56;21.70;44.40
30288;DHT22;17103;48.316;11.558;2023-10-09T09:01:23;21.70;44.10
30288;DHT22;17103;48.316;11.558;2023-10-09T09:03:50;21.80;44.10
30288;DHT22;17103;48.316;11.558;2023-10-09T09:06:19;21.80;44.30
30288;DHT22;17103;48.316;11.558;2023-10-09T09:08:46;21.90;44.40
30288;DHT22;17103;48.316;11.558;2023-10-09T09:11:14;21.90;44.10
30288;DHT22;17103;48.316;11.558;2023-10-09T09:14:02;22.00;44.10
30288;DHT22;17103;48.316;11.558;2023-10-09T09:16:33;22.00;44.10
30288;DHT22;17103;48.316;11.558;2023-10-09T09:19:05;22.10;44.00
30288;DHT22;17103;48.316;11.558;2023-10-09T09:21:37;22.10;43.90
30288;DHT22;17103;48.316;11.558;2023-10-09T09:24:08;22.50;44.10
30288;DHT22;17103;48.316;11.558;2023-10-09T09:27:00;22.10;43.60
30288;DHT22;17103;48.316;11.558;2023-10-09T09:32:04;22.20;44.00
30288;DHT22;17103;48.316;11.558;2023-10-09T09:34:53;22.60;43.90
30288;DHT22;17103;48.316;11.558;2023-10-09T09:37:32;22.20;43.60
30288;DHT22;17103;48.316;11.558;2023-10-09T09:40:21;22.30;44.10
30288;DHT22;17103;48.316;11.558;2023-10-09T09:43:00;22.30;43.70
30288;DHT22;17103;48.316;11.558;2023-10-09T09:45:43;22.30;43.50
30288;DHT22;17103;48.316;11.558;2023-10-09T09:48:19;22.40;43.30
30288;DHT22;17103;48.316;11.558;2023-10-09T09:50:48;22.40;43.50
30288;DHT22;17103;48.316;11.558;2023-10-09T09:53:15;22.50;43.60
30288;DHT22;17103;48.316;11.558;2023-10-09T09:55:52;22.50;43.40
30288;DHT22;17103;48.316;11.558;2023-10-09T09:58:24;22.60;43.60
30288;DHT22;17103;48.316;11.558;2023-10-09T10:00:56;22.60;43.40
30288;DHT22;17103;48.316;11.558;2023-10-09T10:03:27;22.70;43.10
30288;DHT22;17103;48.316;11.558;2023-10-09T10:05:55;22.70;43.00
30288;DHT22;17103;48.316;11.558;2023-10-09T10:08:22;22.80;43.20
30288;DHT22;17103;48.316;11.558;2023-10-09T10:10:56;23.00;43.20
30288;DHT22;17103;48.316;11.558;2023-10-09T10:16:15;22.80;42.60
30288;DHT22;17103;48.316;11.558;2023-10-09T10:19:03;22.80;42.70
30288;DHT22;17103;48.316;11.558;2023-10-09T10:21:47;22.80;42.60
30288;DHT22;17103;48.316;11.558;2023-10-09T10:29:35;22.90;42.40
30288;DHT22;17103;48.316;11.558;2023-10-09T10:32:04;22.80;42.40
30288;DHT22;17103;48.316;11.558;2023-10-09T10:37:21;22.90;42.80
30288;DHT22;17103;48.316;11.558;2023-10-09T10:39:54;22.90;42.10
30288;DHT22;17103;48.316;11.558;2023-10-09T10:42:25;22.90;42.40
30288;DHT22;17103;48.316;11.558;2023-10-09T10:45:03;23.00;42.60
30288;DHT22;17103;48.316;11.558;2023-10-09T10:47:53;23.00;42.40
30288;DHT22;17103;48.316;11.558;2023-10-09T10:50:22;23.00;42.30
30288;DHT22;17103;48.316;11.558;2023-10-09T10:53:15;23.00;42.60
30288;DHT22;17103;48.316;11.558;2023-10-09T10:56:01;23.60;42.90
30288;DHT22;17103;48.316;11.558;2023-10-09T10:58:39;23.20;42.30
30288;DHT22;17103;48.316;11.558;2023-10-09T11:01:20;23.10;42.20
30288;DHT22;17103;48.316;11.558;2023-10-09T11:03:50;23.20;42.20
30288;DHT22;17103;48.316;11.558;2023-10-09T11:06:39;23.20;41.70
30288;DHT22;17103;48.316;11.558;2023-10-09T11:09:08;23.10;41.70
30288;DHT22;17103;48.316;11.558;2023-10-09T11:11:50;23.30;42.20
30288;DHT22;17103;48.316;11.558;2023-10-09T11:14:46;23.50;42.90
30288;DHT22;17103;48.316;11.558;2023-10-09T11:17:34;23.60;42.20
30288;DHT22;17103;48.316;11.558;2023-10-09T11:20:05;23.60;42.30
30288;DHT22;17103;48.316;11.558;2023-10-09T11:22:52;23.70;42.30
30288;DHT22;17103;48.316;11.558;2023-10-09T11:25:43;23.80;42.40
30288;DHT22;17103;48.316;11.558;2023-10-09T11:28:18;23.80;42.20
30288;DHT22;17103;48.316;11.558;2023-10-09T11:31:14;24.00;42.10
30288;DHT22;17103;48.316;11.558;2023-10-09T11:36:11;24.00;41.40
30288;DHT22;17103;48.316;11.558;2023-10-09T11:38:38;24.50;41.20
30288;DHT22;17103;48.316;11.558;2023-10-09T11:41:14;24.10;41.20
30288;DHT22;17103;48.316;11.558;2023-10-09T11:43:51;24.10;41.10
30288;DHT22;17103;48.316;11.558;2023-10-09T11:46:17;24.30;41.30
30288;DHT22;17103;48.316;11.558;2023-10-09T11:49:06;24.20;41.10
30288;DHT22;17103;48.316;11.558;2023-10-09T11:51:41;24.30;40.70
30288;DHT22;17103;48.316;11.558;2023-10-09T11:54:30;24.30;40.50
30288;DHT22;17103;48.316;11.558;2023-10-09T11:56:57;24.30;40.50
30288;DHT22;17103;48.316;11.558;2023-10-09T11:59:32;24.40;40.50
30288;DHT22;17103;48.316;11.558;2023-10-09T12:02:06;24.30;40.40
30288;DHT22;17103;48.316;11.558;2023-10-09T12:04:38;24.20;40.00
30288;DHT22;17103;48.316;11.558;2023-10-09T12:07:08;24.50;39.90
30288;DHT22;17103;48.316;11.558;2023-10-09T12:09:36;24.40;40.00
30288;DHT22;17103;48.316;11.558;2023-10-09T12:12:03;24.40;39.90
30288;DHT22;17103;48.316;11.558;2023-10-09T12:14:29;24.40;39.80
30288;DHT22;17103;48.316;11.558;2023-10-09T12:16:59;24.50;40.30
30288;DHT22;17103;48.316;11.558;2023-10-09T12:19:32;24.50;40.20
30288;DHT22;17103;48.316;11.558;2023-10-09T12:21:57;24.40;40.00
30288;DHT22;17103;48.316;11.558;2023-10-09T12:24:26;24.60;39.70
30288;DHT22;17103;48.316;11.558;2023-10-09T12:26:53;24.50;38.20
30288;DHT22;17103;48.316;11.558;2023-10-09T12:29:18;24.50;38.40
30288;DHT22;17103;48.316;11.558;2023-10-09T12:31:45;24.40;38.60
30288;DHT22;17103;48.316;11.558;2023-10-09T12:34:12;24.50;38.70
30288;DHT22;17103;48.316;11.558;2023-10-09T12:36:44;24.40;39.20
30288;DHT22;17103;48.316;11.558;2023-10-09T12:39:10;24.40;39.10
30288;DHT22;17103;48.316;11.558;2023-10-09T12:41:44;24.40;39.20
30288;DHT22;17103;48.316;11.558;2023-10-09T12:44:09;24.40;39.00
30288;DHT22;17103;48.316;11.558;2023-10-09T12:46:44;24.40;39.40
30288;DHT22;17103;48.316;11.558;2023-10-09T12:49:22;24.50;38.80
30288;DHT22;17103;48.316;11.558;2023-10-09T12:51:53;24.30;38.60
30288;DHT22;17103;48.316;11.558;2023-10-09T12:54:19;24.30;39.00
30288;DHT22;17103;48.316;11.558;2023-10-09T12:56:46;24.30;38.40
30288;DHT22;17103;48.316;11.558;2023-10-09T12:59:14;24.30;38.80
30288;DHT22;17103;48.316;11.558;2023-10-09T13:01:45;24.20;38.90
30288;DHT22;17103;48.316;11.558;2023-10-09T13:04:26;24.20;39.20
30288;DHT22;17103;48.316;11.558;2023-10-09T13:06:58;24.20;39.20
30288;DHT22;17103;48.316;11.558;2023-10-09T13:09:27;24.20;39.40
30288;DHT22;17103;48.316;11.558;2023-10-09T13:12:01;24.20;39.50
30288;DHT22;17103;48.316;11.558;2023-10-09T13:14:34;24.20;39.40
30288;DHT22;17103;48.316;11.558;2023-10-09T13:17:01;24.10;39.40
30288;DHT22;17103;48.316;11.558;2023-10-09T13:19:55;24.10;39.70
30288;DHT22;17103;48.316;11.558;2023-10-09T13:22:28;24.40;40.30
30288;DHT22;17103;48.316;11.558;2023-10-09T13:24:55;24.10;40.00
30288;DHT22;17103;48.316;11.558;2023-10-09T13:27:29;24.00;40.10
30288;DHT22;17103;48.316;11.558;2023-10-09T13:30:02;24.10;40.20
30288;DHT22;17103;48.316;11.558;2023-10-09T13:32:38;24.00;40.00
30288;DHT22;17103;48.316;11.558;2023-10-09T13:41:08;23.90;41.30
30288;DHT22;17103;48.316;11.558;2023-10-09T13:43:47;23.90;41.70
30288;DHT22;17103;48.316;11.558;2023-10-09T13:46:20;23.90;42.20
30288;DHT22;17103;48.316;11.558;2023-10-09T13:48:56;23.80;42.50
30288;DHT22;17103;48.316;11.558;2023-10-09T13:51:50;23.70;42.40
30288;DHT22;17103;48.316;11.558;2023-10-09T13:54:16;23.70;42.60
30288;DHT22;17103;48.316;11.558;2023-10-09T13:56:50;23.60;42.50
30288;DHT22;17103;48.316;11.558;2023-10-09T13:59:19;23.90;43.00
30288;DHT22;17103;48.316;11.558;2023-10-09T14:01:49;23.60;42.90
30288;DHT22;17103;48.316;11.558;2023-10-09T14:04:16;23.60;43.10
30288;DHT22;17103;48.316;11.558;2023-10-09T14:06:55;23.60;43.10
30288;DHT22;17103;48.316;11.558;2023-10-09T14:09:28;23.60;42.70
30288;DHT22;17103;48.316;11.558;2023-10-09T14:12:03;23.60;42.50
30288;DHT22;17103;48.316;11.558;2023-10-09T14:14:42;23.60;43.50
30288;DHT22;17103;48.316;11.558;2023-10-09T14:17:22;23.50;43.00
30288;DHT22;17103;48.316;11.558;2023-10-09T14:19:57;23.50;43.10
30288;DHT22;17103;48.316;11.558;2023-10-09T14:22:42;23.50;43.30
30288;DHT22;17103;48.316;11.558;2023-10-09T14:25:14;23.40;43.30
30288;DHT22;17103;48.316;11.558;2023-10-09T14:31:18;23.30;43.50
30288;DHT22;17103;48.316;11.558;2023-10-09T14:33:48;23.20;43.60
30288;DHT22;17103;48.316;11.558;2023-10-09T14:36:23;23.30;43.80
30288;DHT22;17103;48.316;11.558;2023-10-09T14:38:50;23.30;43.80
30288;DHT22;17103;48.316;11.558;2023-10-09T14:41:22;23.40;44.10
30288;DHT22;17103;48.316;11.558;2023-10-09T14:43:51;23.40;44.00
30288;DHT22;17103;48.316;11.558;2023-10-09T14:46:18;23.40;44.10
30288;DHT22;17103;48.316;11.558;2023-10-09T14:48:54;23.30;44.20
30288;DHT22;17103;48.316;11.558;2023-10-09T14:51:23;23.30;44.40
30288;DHT22;17103;48.316;11.558;2023-10-09T14:53:59;23.30;44.20
30288;DHT22;17103;48.316;11.558;2023-10-09T14:56:30;23.40;44.50
30288;DHT22;17103;48.316;11.558;2023-10-09T14:59:08;23.60;44.80
30288;DHT22;17103;48.316;11.558;2023-10-09T15:01:41;23.30;44.40
30288;DHT22;17103;48.316;11.558;2023-10-09T15:04:15;23.30;44.30
30288;DHT22;17103;48.316;11.558;2023-10-09T15:06:49;23.30;44.30
30288;DHT22;17103;48.316;11.558;2023-10-09T15:09:25;23.00;44.20
30288;DHT22;17103;48.316;11.558;2023-10-09T15:11:57;23.20;44.30
30288;DHT22;17103;48.316;11.558;2023-10-09T15:14:48;23.20;44.20
30288;DHT22;17103;48.316;11.558;2023-10-09T15:17:39;23.20;44.10
30288;DHT22;17103;48.316;11.558;2023-10-09T15:20:06;23.20;44.00
30288;DHT22;17103;48.316;11.558;2023-10-09T15:22:45;23.20;43.80
30288;DHT22;17103;48.316;11.558;2023-10-09T15:25:20;23.20;44.00
30288;DHT22;17103;48.316;11.558;2023-10-09T15:27:50;23.20;44.00
30288;DHT22;17103;48.316;11.558;2023-10-09T15:30:27;23.60;44.30
30288;DHT22;17103;48.316;11.558;2023-10-09T15:33:17;22.70;43.60
30288;DHT22;17103;48.316;11.558;2023-10-09T15:36:46;23.10;43.90
30288;DHT22;17103;48.316;11.558;2023-10-09T15:38:55;23.20;44.00
30288;DHT22;17103;48.316;11.558;2023-10-09T15:41:31;23.10;44.00
30288;DHT22;17103;48.316;11.558;2023-10-09T15:43:57;23.10;44.00
30288;DHT22;17103;48.316;11.558;2023-10-09T15:46:26;23.10;43.90
30288;DHT22;17103;48.316;11.558;2023-10-09T15:48:52;23.10;44.00
30288;DHT22;17103;48.316;11.558;2023-10-09T15:51:19;23.50;44.20
30288;DHT22;17103;48.316;11.558;2023-10-09T15:53:45;23.00;43.80
30288;DHT22;17103;48.316;11.558;2023-10-09T15:56:12;23.30;44.00
30288;DHT22;17103;48.316;11.558;2023-10-09T15:58:41;23.50;44.30
30288;DHT22;17103;48.316;11.558;2023-10-09T16:01:13;22.90;43.90
30288;DHT22;17103;48.316;11.558;2023-10-09T16:03:42;23.50;44.40
30288;DHT22;17103;48.316;11.558;2023-10-09T16:06:11;22.90;44.00
30288;DHT22;17103;48.316;11.558;2023-10-09T16:08:40;22.90;44.00
30288;DHT22;17103;48.316;11.558;2023-10-09T16:11:08;22.90;44.10
30288;DHT22;17103;48.316;11.558;2023-10-09T16:13:35;22.90;44.00
30288;DHT22;17103;48.316;11.558;2023-10-09T16:16:04;23.20;44.20
30288;DHT22;17103;48.316;11.558;2023-10-09T16:18:34;23.30;44.40
30288;DHT22;17103;48.316;11.558;2023-10-09T16:21:00;22.90;44.10
30288;DHT22;17103;48.316;11.558;2023-10-09T16:23:32;23.10;44.30
30288;DHT22;17103;48.316;11.558;2023-10-09T16:25:58;22.90;44.20
30288;DHT22;17103;48.316;11.558;2023-10-09T16:28:26;23.10;44.40
30288;DHT22;17103;48.316;11.558;2023-10-09T16:30:55;22.90;44.20
30288;DHT22;17103;48.316;11.558;2023-10-09T16:33:23;22.90;44.30